Time;durP1;ratioP1;P1;durP2;ratioP2;P2;SDS_P1;SDS_P2;PMS_P1;PMS_P2;Temp;Humidity;BMP_temperature;BMP_pressure;BME280_temperature;BME280_humidity;BME280_pressure;Samples;Min_cycle;Max_cycle;Signal;HPM_P1;HPM_P2
2023/11/07 00:00:36;;;;;;;2.80;1.23;;;;;;;9.44;100.00;99852.97;5047526;28;20136;-73
2023/11/07 00:03:04;;;;;;;3.40;1.38;;;;;;;9.49;100.00;99858.03;5065514;28;20204;-73
2023/11/07 00:05:34;;;;;;;5.72;1.50;;;;;;;9.46;100.00;99861.69;5045326;28;20071;-73
2023/11/07 00:08:04;;;;;;;3.25;1.70;;;;;;;9.38;100.00;99858.59;5049336;28;20474;-73
2023/11/07 00:10:32;;;;;;;3.28;1.70;;;;;;;9.32;100.00;99863.31;5057036;28;20067;-72
2023/11/07 00:13:00;;;;;;;4.75;1.70;;;;;;;9.42;100.00;99868.09;5051620;28;20064;-72
2023/11/07 00:15:30;;;;;;;4.95;1.50;;;;;;;9.40;100.00;99871.72;5062235;28;20084;-73
2023/11/07 00:17:59;;;;;;;8.43;1.80;;;;;;;9.31;100.00;99859.81;5035609;28;20061;-72
2023/11/07 00:20:28;;;;;;;6.40;1.35;;;;;;;9.39;100.00;99870.88;5049601;28;20498;-73
2023/11/07 00:22:57;;;;;;;7.57;1.35;;;;;;;9.37;100.00;99866.59;5063963;28;20472;-73
2023/11/07 00:25:26;;;;;;;3.53;1.23;;;;;;;9.41;100.00;99862.88;5060544;28;20063;-73
2023/11/07 00:27:54;;;;;;;3.90;1.65;;;;;;;9.52;100.00;99875.53;5055474;28;20144;-73
2023/11/07 00:30:22;;;;;;;4.88;1.45;;;;;;;9.51;100.00;99872.03;5065821;28;20065;-72
2023/11/07 00:32:53;;;;;;;3.28;1.30;;;;;;;9.47;100.00;99863.41;5051639;28;20367;-73
2023/11/07 00:35:22;;;;;;;;;;;;;;;9.48;100.00;99874.84;5052338;28;20045;-73
2023/11/07 00:37:51;;;;;;;6.22;1.50;;;;;;;9.42;100.00;99869.88;5042721;28;19975;-74
2023/11/07 00:40:19;;;;;;;4.60;1.40;;;;;;;9.40;100.00;99872.59;5046067;28;20044;-73
2023/11/07 00:42:47;;;;;;;4.53;1.60;;;;;;;9.41;100.00;99866.38;5034059;28;20052;-74
2023/11/07 00:45:16;;;;;;;4.88;1.50;;;;;;;9.42;100.00;99870.72;5034750;28;20096;-74
2023/11/07 00:47:44;;;;;;;6.55;1.40;;;;;;;9.49;100.00;99876.53;5046652;28;20056;-73
2023/11/07 00:50:13;;;;;;;4.07;1.33;;;;;;;9.47;100.00;99873.97;5050713;28;20045;-72
2023/11/07 00:52:42;;;;;;;2.25;1.20;;;;;;;9.42;100.00;99870.72;5045196;28;20040;-73
2023/11/07 00:55:11;;;;;;;2.70;1.55;;;;;;;9.41;100.00;99882.22;5052121;28;20060;-73
2023/11/07 00:57:39;;;;;;;3.72;1.58;;;;;;;9.46;100.00;99880.19;5036657;28;20036;-73
2023/11/07 01:00:08;;;;;;;5.32;1.40;;;;;;;9.48;100.00;99880.97;5054294;28;20076;-73
2023/11/07 01:02:38;;;;;;;5.68;1.50;;;;;;;9.45;100.00;99883.75;5053001;28;20045;-73
2023/11/07 01:05:06;;;;;;;6.50;1.65;;;;;;;9.45;100.00;99882.91;5066344;28;20364;-73
2023/11/07 01:07:34;;;;;;;2.22;0.95;;;;;;;9.43;100.00;99890.94;5043421;28;20060;-73
2023/11/07 01:10:08;;;;;;;6.07;1.50;;;;;;;9.45;100.00;99891.69;5038534;28;20044;-73
2023/11/07 01:12:36;;;;;;;2.97;1.15;;;;;;;9.47;100.00;99897.75;5053785;28;20379;-74
2023/11/07 01:15:06;;;;;;;4.55;1.40;;;;;;;9.44;100.00;99902.38;5049633;28;20141;-73
2023/11/07 01:17:34;;;;;;;4.97;1.60;;;;;;;9.43;100.00;99893.59;5043671;28;20094;-72
2023/11/07 01:20:06;;;;;;;3.00;1.20;;;;;;;9.45;100.00;99901.41;5053722;28;20076;-73
2023/11/07 01:22:35;;;;;;;4.50;1.00;;;;;;;9.28;100.00;99893.50;5055699;28;20102;-72
2023/11/07 01:25:04;;;;;;;2.72;1.40;;;;;;;9.31;100.00;99899.47;5054832;28;20452;-73
2023/11/07 01:27:33;;;;;;;4.78;1.50;;;;;;;9.34;100.00;99909.88;5043059;28;20559;-72
2023/11/07 01:30:04;;;;;;;6.20;1.27;;;;;;;9.34;100.00;99909.88;5064710;28;20128;-72
2023/11/07 01:32:32;;;;;;;6.18;1.38;;;;;;;9.38;100.00;99906.16;5070987;28;20503;-72
2023/11/07 01:35:04;;;;;;;5.32;1.40;;;;;;;9.35;100.00;99916.88;5049375;28;20103;-72
2023/11/07 01:37:34;;;;;;;4.30;1.10;;;;;;;9.28;100.00;99915.50;5039433;28;20538;-72
2023/11/07 01:40:03;;;;;;;2.80;1.30;;;;;;;9.32;100.00;99913.53;5045476;28;20413;-73
2023/11/07 01:42:41;;;;;;;3.00;1.20;;;;;;;9.36;100.00;99912.44;5040367;28;20057;-73
2023/11/07 01:45:11;;;;;;;8.02;1.50;;;;;;;9.34;100.00;99917.81;5049561;28;20095;-74
2023/11/07 01:47:40;;;;;;;4.93;1.30;;;;;;;9.40;100.00;99914.88;5049827;28;20146;-73
2023/11/07 01:50:11;;;;;;;3.40;1.15;;;;;;;9.37;100.00;99908.88;5049889;28;20416;-72
2023/11/07 01:52:40;;;;;;;3.13;1.02;;;;;;;9.40;100.00;99909.59;5045929;28;20107;-73
2023/11/07 01:55:17;;;;;;;5.85;1.58;;;;;;;9.38;100.00;99916.72;5051706;28;20049;-72
2023/11/07 01:57:47;;;;;;;5.05;1.30;;;;;;;9.33;100.00;99905.53;5055042;28;20134;-72
2023/11/07 02:00:19;;;;;;;5.30;1.02;;;;;;;9.42;100.00;99917.44;5051744;28;20044;-72
2023/11/07 02:02:47;;;;;;;1.15;0.85;;;;;;;9.40;100.00;99911.38;5052560;28;20140;-73
2023/11/07 02:05:17;;;;;;;3.40;1.13;;;;;;;9.35;100.00;99906.31;5047548;28;20072;-74
2023/11/07 02:07:46;;;;;;;1.95;0.90;;;;;;;9.43;100.00;99914.72;5038039;28;20492;-73
2023/11/07 02:10:14;;;;;;;6.57;1.17;;;;;;;9.42;100.00;99899.81;5053304;28;20079;-73
2023/11/07 02:12:42;;;;;;;2.60;1.10;;;;;;;9.46;100.00;99914.53;5054053;28;20045;-73
2023/11/07 02:15:27;;;;;;;2.28;1.00;;;;;;;9.45;100.00;99917.25;5044012;28;20044;-74
2023/11/07 02:17:56;;;;;;;2.10;0.80;;;;;;;9.39;100.00;99910.53;5042397;28;20053;-73
2023/11/07 02:20:24;;;;;;;3.22;1.20;;;;;;;9.43;100.00;99917.38;5050020;28;20455;-73
2023/11/07 02:22:55;;;;;;;3.78;1.30;;;;;;;9.50;100.00;99916.13;5052255;28;20063;-73
2023/11/07 02:25:24;;;;;;;3.03;1.33;;;;;;;9.46;100.00;99911.03;5050040;28;20049;-73
2023/11/07 02:27:55;;;;;;;3.80;1.38;;;;;;;9.48;100.00;99917.13;5035902;28;20037;-73
2023/11/07 02:30:23;;;;;;;5.10;1.10;;;;;;;9.43;100.00;99916.50;5046636;28;20522;-73
2023/11/07 02:32:52;;;;;;;2.42;1.10;;;;;;;9.41;100.00;99911.31;5048824;28;20049;-73
2023/11/07 02:35:21;;;;;;;6.00;1.25;;;;;;;9.40;100.00;99917.53;5041914;28;20048;-72
2023/11/07 02:37:49;;;;;;;5.07;1.23;;;;;;;9.32;100.00;99906.47;5048483;28;20056;-72
2023/11/07 02:40:18;;;;;;;1.92;1.17;;;;;;;9.32;100.00;99918.81;5049579;28;20037;-73
2023/11/07 02:42:48;;;;;;;6.25;1.63;;;;;;;9.27;100.00;99913.78;5051574;28;20033;-73
2023/11/07 02:45:17;;;;;;;4.20;1.40;;;;;;;9.28;100.00;99918.13;5053321;28;20056;-73
2023/11/07 02:47:45;;;;;;;3.45;1.52;;;;;;;9.36;100.00;99920.38;5052407;28;20056;-73
2023/11/07 02:50:13;;;;;;;1.73;1.20;;;;;;;9.43;100.00;99912.09;5061892;28;20079;-73
2023/11/07 02:52:42;;;;;;;5.25;1.67;;;;;;;9.40;100.00;99911.38;5064806;28;20059;-74
2023/11/07 02:55:10;;;;;;;3.03;1.15;;;;;;;9.36;100.00;99902.75;5064063;28;20121;-73
2023/11/07 02:57:38;;;;;;;2.47;1.23;;;;;;;9.49;100.00;99916.19;5059347;28;20045;-72
2023/11/07 03:00:10;;;;;;;3.70;1.25;;;;;;;9.40;100.00;99906.94;5076129;28;21406;-73
2023/11/07 03:02:39;;;;;;;3.83;1.08;;;;;;;9.43;100.00;99906.78;5038442;28;20056;-73
2023/11/07 03:05:10;;;;;;;2.80;1.10;;;;;;;9.42;100.00;99909.50;5050480;28;20425;-72
2023/11/07 03:07:38;;;;;;;3.47;1.10;;;;;;;9.43;100.00;99908.59;5042963;28;20065;-72
2023/11/07 03:10:07;;;;;;;2.83;1.30;;;;;;;9.48;100.00;99907.41;5054482;28;20048;-72
2023/11/07 03:12:35;;;;;;;4.18;1.38;;;;;;;9.43;100.00;99898.88;5037840;28;20072;-73
2023/11/07 03:15:04;;;;;;;3.10;1.45;;;;;;;9.41;100.00;99902.50;5068756;28;20041;-72
2023/11/07 03:17:40;;;;;;;4.38;1.27;;;;;;;9.37;100.00;99907.09;5041325;28;20108;-73
2023/11/07 03:20:10;;;;;;;2.80;1.33;;;;;;;9.35;100.00;99903.66;5049656;28;20049;-72
2023/11/07 03:22:39;;;;;;;2.55;1.40;;;;;;;9.35;100.00;99898.38;5053547;28;20052;-72
2023/11/07 03:25:09;;;;;;;2.90;1.50;;;;;;;9.35;100.00;99895.75;5061071;28;20049;-72
2023/11/07 03:27:38;;;;;;;3.70;1.17;;;;;;;9.34;100.00;99903.75;5040572;28;20045;-73
2023/11/07 03:30:07;;;;;;;6.50;1.40;;;;;;;9.36;100.00;99886.88;5058582;28;20077;-73
2023/11/07 03:32:37;;;;;;;5.97;1.30;;;;;;;9.33;100.00;99894.97;5054118;28;20048;-73
2023/11/07 03:35:07;;;;;;;4.85;1.33;;;;;;;9.42;100.00;99902.44;5054115;28;20486;-73
2023/11/07 03:37:35;;;;;;;4.47;1.35;;;;;;;9.36;100.00;99901.88;5024602;28;20049;-73
2023/11/07 03:40:04;;;;;;;2.30;1.15;;;;;;;9.34;100.00;99904.59;5042020;28;20491;-73
2023/11/07 03:42:32;;;;;;;3.33;1.30;;;;;;;9.32;100.00;99898.53;5054689;28;20049;-73
2023/11/07 03:45:00;;;;;;;4.50;1.35;;;;;;;9.31;100.00;99901.25;5037306;28;20075;-73
2023/11/07 03:47:30;;;;;;;5.22;1.40;;;;;;;9.37;100.00;99904.44;5051094;28;20509;-73
2023/11/07 03:50:02;;;;;;;3.90;1.05;;;;;;;9.37;100.00;99907.09;5059623;28;20143;-72
2023/11/07 03:52:32;;;;;;;3.33;1.30;;;;;;;9.38;100.00;99910.59;5042193;28;20075;-73
2023/11/07 03:55:00;;;;;;;3.28;1.30;;;;;;;9.37;100.00;99906.22;5065564;28;20069;-73
2023/11/07 03:57:29;;;;;;;5.30;1.40;;;;;;;9.36;100.00;99912.44;5055193;28;20689;-72
2023/11/07 03:59:58;;;;;;;3.90;1.40;;;;;;;9.33;100.00;99912.59;5058312;28;20067;-71
2023/11/07 04:02:27;;;;;;;1.55;0.90;;;;;;;9.34;100.00;99916.94;5075543;28;20420;-72
2023/11/07 04:04:55;;;;;;;5.55;1.33;;;;;;;9.39;100.00;99921.09;5064346;28;20065;-72
2023/11/07 04:07:27;;;;;;;5.88;1.40;;;;;;;9.36;100.00;99921.22;5063799;28;20033;-71
2023/11/07 04:10:05;;;;;;;1.88;1.27;;;;;;;9.39;100.00;99922.88;5057278;28;20133;-72
2023/11/07 04:12:37;;;;;;;3.78;1.55;;;;;;;9.40;100.00;99921.94;5046671;28;20079;-72
2023/11/07 04:15:08;;;;;;;2.70;1.08;;;;;;;9.41;100.00;99929.81;5071336;28;20048;-72
2023/11/07 04:17:37;;;;;;;5.00;1.40;;;;;;;9.40;100.00;99927.22;5056229;28;20307;-72
2023/11/07 04:20:09;;;;;;;2.78;1.40;;;;;;;9.39;100.00;99923.72;5060618;28;20045;-72
2023/11/07 04:22:40;;;;;;;3.83;1.40;;;;;;;9.37;100.00;99925.59;5064780;28;20073;-72
2023/11/07 04:25:10;;;;;;;2.80;1.40;;;;;;;9.40;100.00;99920.16;5059510;28;20057;-72
2023/11/07 04:27:51;;;;;;;5.03;1.23;;;;;;;9.38;100.00;99914.09;5040739;28;20049;-72
2023/11/07 04:30:19;;;;;;;4.32;1.60;;;;;;;9.47;100.00;99915.41;5046919;28;20049;-72
2023/11/07 04:32:48;;;;;;;3.17;1.20;;;;;;;9.48;100.00;99922.41;5048218;28;20117;-72
2023/11/07 04:35:16;;;;;;;1.98;1.25;;;;;;;9.43;100.00;99919.16;5058589;28;20141;-72
2023/11/07 04:37:45;;;;;;;2.65;1.25;;;;;;;9.46;100.00;99924.25;5043140;28;20040;-72
2023/11/07 04:40:16;;;;;;;5.65;1.60;;;;;;;9.45;100.00;99928.69;5059174;28;20049;-72
2023/11/07 04:42:45;;;;;;;3.83;1.30;;;;;;;9.37;100.00;99915.03;5029644;28;20040;-72
2023/11/07 04:45:13;;;;;;;5.50;1.00;;;;;;;9.44;100.00;99926.16;5045712;28;20045;-71
2023/11/07 04:47:41;;;;;;;3.10;1.40;;;;;;;9.38;100.00;99914.09;5042955;28;20065;-72
2023/11/07 04:50:12;;;;;;;5.70;1.52;;;;;;;9.50;100.00;99923.19;5040791;28;20094;-72
2023/11/07 04:52:39;;;;;;;4.32;1.23;;;;;;;9.52;100.00;99910.75;5050115;28;20048;-72
2023/11/07 04:55:11;;;;;;;3.80;1.30;;;;;;;9.50;100.00;99916.13;5032089;28;20076;-73
2023/11/07 04:57:40;;;;;;;3.85;1.35;;;;;;;9.48;100.00;99906.53;5042229;28;20043;-73
2023/11/07 05:00:10;;;;;;;4.78;1.23;;;;;;;9.61;100.00;99917.34;5045022;28;20044;-72
2023/11/07 05:02:40;;;;;;;2.63;1.15;;;;;;;9.59;100.00;99912.16;5031698;28;20212;-72
2023/11/07 05:05:09;;;;;;;6.15;1.17;;;;;;;9.53;100.00;99916.91;5070216;28;20044;-73
2023/11/07 05:07:37;;;;;;;4.00;1.52;;;;;;;9.54;100.00;99913.31;5058574;28;20061;-72
2023/11/07 05:10:09;;;;;;;4.07;1.30;;;;;;;9.55;100.00;99905.31;5027235;28;20056;-72
2023/11/07 05:12:39;;;;;;;3.78;1.33;;;;;;;9.58;100.00;99914.88;5051492;28;20036;-72
2023/11/07 05:15:09;;;;;;;5.65;1.60;;;;;;;9.56;100.00;99909.69;5066831;28;20048;-74
2023/11/07 05:17:39;;;;;;;4.95;1.60;;;;;;;9.57;100.00;99915.81;5055852;28;20029;-72
2023/11/07 05:20:10;;;;;;;4.50;1.52;;;;;;;9.48;100.00;99920.63;5042307;28;20048;-73
2023/11/07 05:22:39;;;;;;;4.18;1.23;;;;;;;9.50;100.00;99917.91;5045704;28;20037;-73
2023/11/07 05:25:08;;;;;;;4.43;1.55;;;;;;;9.57;100.00;99907.88;5052884;28;20466;-72
2023/11/07 05:27:36;;;;;;;4.18;1.77;;;;;;;9.66;100.00;99917.97;5049996;28;20055;-72
2023/11/07 05:30:08;;;;;;;4.30;1.90;;;;;;;9.62;100.00;99913.78;5039071;28;20048;-72
2023/11/07 05:32:38;;;;;;;4.47;1.75;;;;;;;9.66;100.00;99910.91;5045602;28;20120;-72
2023/11/07 05:35:08;;;;;;;5.43;2.38;;;;;;;9.62;100.00;99916.41;5043798;28;20104;-73
2023/11/07 05:37:39;;;;;;;4.07;2.03;;;;;;;9.59;100.00;99913.97;5049004;28;20049;-72
2023/11/07 05:40:13;;;;;;;5.67;1.70;;;;;;;9.56;100.00;99914.97;5040139;28;21041;-72
2023/11/07 05:42:41;;;;;;;6.25;2.28;;;;;;;9.54;100.00;99910.69;5050189;28;20515;-72
2023/11/07 05:45:12;;;;;;;4.85;1.90;;;;;;;9.55;100.00;99910.59;5045333;28;20242;-73
2023/11/07 05:47:41;;;;;;;5.53;1.67;;;;;;;9.61;100.00;99914.72;5043048;28;20045;-73
2023/11/07 05:50:11;;;;;;;4.82;2.10;;;;;;;9.56;100.00;99914.97;5052424;28;20102;-72
2023/11/07 05:52:41;;;;;;;6.07;2.00;;;;;;;9.50;100.00;99918.75;5048869;28;20048;-73
2023/11/07 05:55:10;;;;;;;5.20;1.98;;;;;;;9.55;100.00;99917.69;5044564;28;20045;-72
2023/11/07 05:57:39;;;;;;;5.68;2.15;;;;;;;9.54;100.00;99915.97;5041175;28;20068;-72
2023/11/07 06:00:10;;;;;;;5.78;1.83;;;;;;;9.55;100.00;99907.97;5039716;28;20487;-72
2023/11/07 06:02:41;;;;;;;5.00;1.75;;;;;;;9.55;100.00;99912.41;5043168;28;20041;-72
2023/11/07 06:05:09;;;;;;;4.53;1.80;;;;;;;9.45;100.00;99907.53;5042758;28;20113;-72
2023/11/07 06:07:40;;;;;;;5.20;1.85;;;;;;;9.47;100.00;99913.63;5047372;28;20061;-73
2023/11/07 06:10:08;;;;;;;9.43;1.80;;;;;;;9.51;100.00;99914.31;5019116;28;20065;-73
2023/11/07 06:12:36;;;;;;;3.70;1.40;;;;;;;9.54;100.00;99913.31;5047066;28;20052;-72
2023/11/07 06:15:05;;;;;;;2.90;1.48;;;;;;;9.56;100.00;99922.03;5069861;28;20058;-72
2023/11/07 06:17:34;;;;;;;3.42;1.40;;;;;;;9.53;100.00;99919.53;5031337;28;20631;-72
2023/11/07 06:20:09;;;;;;;4.03;1.60;;;;;;;9.55;100.00;99925.59;5038736;28;20048;-73
2023/11/07 06:22:38;;;;;;;3.88;1.40;;;;;;;9.52;100.00;99917.81;5044444;28;20036;-72
2023/11/07 06:25:09;;;;;;;5.78;1.95;;;;;;;9.48;100.00;99927.69;5029453;28;20044;-73
2023/11/07 06:27:39;;;;;;;5.30;1.70;;;;;;;9.43;100.00;99919.16;5044300;28;20041;-73
2023/11/07 06:30:10;;;;;;;2.63;1.40;;;;;;;9.43;100.00;99922.66;5034692;28;20056;-73
2023/11/07 06:32:39;;;;;;;7.03;1.60;;;;;;;9.45;100.00;99936.63;5044296;28;20068;-73
2023/11/07 06:35:16;;;;;;;6.15;2.10;;;;;;;9.38;100.00;99919.38;5040466;28;20242;-73
2023/11/07 06:37:46;;;;;;;2.40;1.23;;;;;;;9.47;100.00;99937.41;5044918;28;20464;-73
2023/11/07 06:40:17;;;;;;;4.70;1.60;;;;;;;9.42;100.00;99938.59;5035180;28;20084;-73
2023/11/07 06:42:47;;;;;;;2.22;1.20;;;;;;;9.41;100.00;99929.81;5042411;28;20578;-74
2023/11/07 06:45:16;;;;;;;3.25;1.33;;;;;;;9.44;100.00;99942.00;5043985;28;20041;-73
2023/11/07 06:47:51;;;;;;;4.30;1.60;;;;;;;9.47;100.00;99947.97;5042220;28;20041;-72
2023/11/07 06:50:23;;;;;;;2.67;1.42;;;;;;;9.40;100.00;99940.44;5030423;28;20435;-73
2023/11/07 06:52:54;;;;;;;3.47;1.65;;;;;;;9.43;100.00;99954.38;5047020;28;20065;-72
2023/11/07 06:55:25;;;;;;;4.25;1.40;;;;;;;9.41;100.00;99955.38;5047072;28;20048;-72
2023/11/07 06:57:56;;;;;;;3.97;1.20;;;;;;;9.37;100.00;99953.81;5040359;28;20049;-71
2023/11/07 07:00:25;;;;;;;;;;;;;;;9.39;100.00;99947.50;5039493;28;20045;-73
2023/11/07 07:02:55;;;;;;;3.33;1.30;;;;;;;9.53;100.00;99946.81;5029762;28;19928;-72
2023/11/07 07:05:30;;;;;;;6.65;1.70;;;;;;;9.52;100.00;99949.53;5050408;28;20041;-73
2023/11/07 07:07:58;;;;;;;6.32;1.95;;;;;;;9.45;100.00;99944.56;5043749;28;20056;-72
2023/11/07 07:10:26;;;;;;;3.63;1.55;;;;;;;9.53;100.00;99961.81;5034393;28;20362;-72
2023/11/07 07:12:54;;;;;;;5.13;1.73;;;;;;;9.52;100.00;99966.25;5045670;28;20051;-72
2023/11/07 07:15:23;;;;;;;5.50;1.70;;;;;;;9.53;100.00;99961.81;5058291;28;20403;-72
2023/11/07 07:17:51;;;;;;;4.78;1.83;;;;;;;9.53;100.00;99959.19;5046628;28;20114;-72
2023/11/07 07:20:20;;;;;;;4.38;2.15;;;;;;;9.52;100.00;99965.41;5037017;28;20041;-72
2023/11/07 07:22:50;;;;;;;2.88;1.67;;;;;;;9.47;100.00;99969.13;5040513;28;20133;-73
2023/11/07 07:25:24;;;;;;;4.70;1.63;;;;;;;9.25;100.00;99933.28;5070106;28;20045;-73
2023/11/07 07:27:55;;;;;;;2.67;1.75;;;;;;;9.50;100.00;99976.03;5041676;28;20045;-73
2023/11/07 07:30:26;;;;;;;3.95;1.75;;;;;;;9.50;100.00;99974.25;5038424;28;20048;-73
2023/11/07 07:32:54;;;;;;;5.95;1.80;;;;;;;9.51;100.00;99969.84;5037928;28;20041;-72
2023/11/07 07:35:29;;;;;;;3.40;1.55;;;;;;;9.58;100.00;99981.81;5044438;28;20068;-72
2023/11/07 07:38:03;;;;;;;3.67;1.60;;;;;;;9.55;100.00;99978.47;5047743;28;20099;-72
2023/11/07 07:40:33;;;;;;;5.13;1.60;;;;;;;9.58;100.00;99978.31;5041089;28;20070;-72
2023/11/07 07:43:08;;;;;;;4.03;1.55;;;;;;;9.56;100.00;99973.13;5051848;28;20068;-71
2023/11/07 07:45:42;;;;;;;3.83;1.58;;;;;;;9.62;100.00;99974.56;5050043;28;20094;-72
2023/11/07 07:48:10;;;;;;;5.60;1.67;;;;;;;9.64;100.00;99972.72;5029646;28;20044;-71
2023/11/07 07:50:41;;;;;;;3.20;1.60;;;;;;;9.62;100.00;99977.22;5043540;28;20095;-71
2023/11/07 07:53:15;;;;;;;7.20;3.13;;;;;;;9.62;100.00;99982.50;5049016;28;20045;-72
2023/11/07 07:55:44;;;;;;;3.55;1.55;;;;;;;9.60;100.00;99979.94;5043937;28;20491;-72
2023/11/07 07:58:18;;;;;;;6.32;1.60;;;;;;;9.61;100.00;99983.44;5046103;28;20153;-72
2023/11/07 08:00:49;;;;;;;3.75;1.55;;;;;;;9.61;100.00;99980.78;5020542;28;20045;-72
2023/11/07 08:03:19;;;;;;;6.20;1.38;;;;;;;9.77;100.00;99984.38;5060307;28;20134;-72
2023/11/07 08:05:48;;;;;;;3.55;2.00;;;;;;;9.79;100.00;99980.75;5054100;28;20064;-71
2023/11/07 08:08:22;;;;;;;3.58;1.55;;;;;;;9.81;100.00;99984.16;5081167;28;20057;-72
2023/11/07 08:10:57;;;;;;;2.95;1.70;;;;;;;9.84;100.00;99980.50;5052774;28;20052;-72
2023/11/07 08:13:30;;;;;;;3.28;1.33;;;;;;;9.83;100.00;99984.94;5057249;28;20052;-72
2023/11/07 08:15:58;;;;;;;4.68;1.92;;;;;;;9.93;100.00;99985.31;5046741;28;20052;-72
2023/11/07 08:18:28;;;;;;;3.40;1.40;;;;;;;10.09;100.00;99982.75;5067293;28;20063;-71
2023/11/07 08:20:56;;;;;;;6.28;2.45;;;;;;;10.16;100.00;99979.72;5054879;28;20349;-71
2023/11/07 08:23:26;;;;;;;2.72;1.52;;;;;;;10.10;100.00;99982.69;5047844;28;20117;-71
2023/11/07 08:25:54;;;;;;;;;;;;;;;10.09;100.00;99982.75;5047427;28;20191;-73
2023/11/07 08:28:22;;;;;;;2.85;1.20;;;;;;;10.16;100.00;99985.03;5042361;28;19921;-74
2023/11/07 08:30:51;;;;;;;6.07;1.92;;;;;;;10.09;100.00;99980.97;5020713;28;20049;-71
2023/11/07 08:33:19;;;;;;;2.22;1.10;;;;;;;10.12;100.00;99975.53;5048624;28;20141;-72
2023/11/07 08:35:47;;;;;;;3.50;1.00;;;;;;;10.21;100.00;99981.31;5048837;28;20101;-72
2023/11/07 08:38:15;;;;;;;2.55;1.10;;;;;;;10.23;100.00;99984.75;5046735;28;20333;-72
2023/11/07 08:40:45;;;;;;;4.00;0.88;;;;;;;10.26;100.00;99980.13;5044747;28;20060;-71
2023/11/07 08:43:13;;;;;;;4.78;1.58;;;;;;;10.31;100.00;99982.53;5054562;28;21350;-72
2023/11/07 08:45:41;;;;;;;3.17;1.00;;;;;;;10.38;100.00;99983.94;5050886;28;20056;-73
2023/11/07 08:48:10;;;;;;;3.33;1.13;;;;;;;10.43;100.00;99987.19;5076509;28;20081;-72
2023/11/07 08:50:39;;;;;;;4.78;1.65;;;;;;;10.45;100.00;99985.31;5049489;28;20079;-73
2023/11/07 08:53:09;;;;;;;2.95;1.10;;;;;;;10.40;100.00;99976.75;5050263;28;20253;-73
2023/11/07 08:55:38;;;;;;;;;;;;;;;10.52;100.00;99999.94;5044640;28;20149;-72
2023/11/07 08:58:08;;;;;;;3.20;1.40;;;;;;;10.48;100.00;99974.56;5051673;28;19920;-72
2023/11/07 09:00:36;;;;;;;3.03;1.02;;;;;;;10.60;100.00;99984.50;5039347;28;20041;-72
2023/11/07 09:03:04;;;;;;;3.38;1.00;;;;;;;10.62;100.00;99987.91;5052738;28;20489;-72
2023/11/07 09:05:32;;;;;;;3.97;1.00;;;;;;;10.63;100.00;99989.63;5069609;28;20060;-73
2023/11/07 09:08:04;;;;;;;6.13;1.40;;;;;;;10.57;100.00;99997.88;5063852;28;20041;-72
2023/11/07 09:10:33;;;;;;;4.70;1.17;;;;;;;10.55;100.00;99994.47;5041813;28;20571;-74
2023/11/07 09:13:03;;;;;;;3.28;1.40;;;;;;;10.62;100.00;99992.34;5068209;28;20076;-73
2023/11/07 09:15:33;;;;;;;2.38;1.10;;;;;;;10.68;100.00;99981.44;5048768;28;20052;-73
2023/11/07 09:18:01;;;;;;;2.05;1.15;;;;;;;10.78;100.00;100003.84;5043041;28;20049;-72
2023/11/07 09:20:34;;;;;;;2.25;1.20;;;;;;;10.87;100.00;100003.31;5035389;28;20048;-74
2023/11/07 09:23:04;;;;;;;3.30;1.23;;;;;;;10.98;100.00;99997.47;5045069;28;20052;-72
2023/11/07 09:25:32;;;;;;;1.70;1.08;;;;;;;11.08;100.00;99996.00;5051872;28;20049;-73
2023/11/07 09:28:03;;;;;;;;;;;;;;;11.19;100.00;100006.84;5031942;28;20048;-72
2023/11/07 09:30:33;;;;;;;2.30;1.00;;;;;;;11.09;100.00;100013.63;5036426;28;19972;-72
2023/11/07 09:33:05;;;;;;;4.60;1.38;;;;;;;10.77;100.00;100008.28;5029830;28;20064;-73
2023/11/07 09:35:38;;;;;;;1.88;1.17;;;;;;;10.70;100.00;100009.56;5049030;28;20091;-72
2023/11/07 09:38:07;;;;;;;4.47;1.20;;;;;;;10.65;100.00;100014.25;5045050;28;20048;-72
2023/11/07 09:40:35;;;;;;;2.25;1.17;;;;;;;10.71;100.00;100024.50;5038369;28;20059;-72
2023/11/07 09:43:05;;;;;;;1.52;1.13;;;;;;;10.75;100.00;100009.28;5045057;28;20101;-72
2023/11/07 09:45:40;;;;;;;3.23;1.13;;;;;;;10.76;100.00;100003.06;5029846;28;20134;-72
2023/11/07 09:48:10;;;;;;;1.83;1.00;;;;;;;10.85;100.00;100016.69;5050162;28;20581;-72
2023/11/07 09:50:43;;;;;;;4.07;2.25;;;;;;;10.92;100.00;100016.34;5049547;28;20647;-72
2023/11/07 09:53:16;;;;;;;2.92;1.25;;;;;;;10.93;100.00;100004.81;5045849;28;20094;-71
2023/11/07 09:55:45;;;;;;;3.30;1.10;;;;;;;11.00;100.00;100019.44;5060175;28;20049;-72
2023/11/07 09:58:20;;;;;;;3.58;1.30;;;;;;;10.94;100.00;100003.88;5046698;28;20045;-72
2023/11/07 10:00:53;;;;;;;1.50;0.88;;;;;;;10.79;100.00;100016.16;5034176;28;20060;-71
2023/11/07 10:03:24;;;;;;;1.90;0.98;;;;;;;10.75;100.00;100010.16;5048330;28;20425;-72
2023/11/07 10:05:53;;;;;;;;;;;;;;;10.73;100.00;100012.03;5049950;28;20071;-72
2023/11/07 10:08:23;;;;;;;1.75;1.05;;;;;;;10.66;100.00;100013.31;5074939;28;20322;-73
2023/11/07 10:11:09;;;;;;;2.67;0.95;;;;;;;10.68;100.00;100022.03;5026039;28;20041;-73
2023/11/07 10:13:38;;;;;;;3.38;1.00;;;;;;;10.69;100.00;100013.16;5044798;28;20053;-72
2023/11/07 10:16:09;;;;;;;3.65;1.20;;;;;;;10.63;100.00;100016.13;5046906;28;20044;-71
2023/11/07 10:18:48;;;;;;;4.07;1.73;;;;;;;10.52;100.00;100019.34;5049290;28;20495;-72
2023/11/07 10:21:30;;;;;;;2.58;1.20;;;;;;;10.57;100.00;100018.22;5039905;28;20045;-72
2023/11/07 10:23:59;;;;;;;4.03;1.20;;;;;;;10.59;100.00;100019.84;5045447;28;20063;-72
2023/11/07 10:26:29;;;;;;;5.10;1.13;;;;;;;10.62;100.00;100011.75;5063285;28;20053;-72
2023/11/07 10:29:12;;;;;;;2.90;1.10;;;;;;;10.61;100.00;100017.97;5044763;28;20437;-73
2023/11/07 10:31:59;;;;;;;3.17;1.10;;;;;;;10.57;100.00;100015.56;5038130;28;20087;-73
2023/11/07 10:34:32;;;;;;;3.00;1.60;;;;;;;10.48;100.00;100004.53;5063450;28;20065;-73
2023/11/07 10:37:00;;;;;;;3.70;1.25;;;;;;;10.65;100.00;100023.97;5046937;28;20053;-72
2023/11/07 10:39:31;;;;;;;2.47;1.10;;;;;;;10.63;100.00;100025.84;5042538;28;20065;-73
2023/11/07 10:42:16;;;;;;;3.15;1.30;;;;;;;10.73;100.00;100019.97;5037345;28;20056;-73
2023/11/07 10:44:45;;;;;;;3.45;1.23;;;;;;;10.79;100.00;100021.44;5051310;28;20052;-72
2023/11/07 10:47:19;;;;;;;2.22;1.00;;;;;;;10.79;100.00;100013.50;5061436;28;20083;-73
2023/11/07 10:49:51;;;;;;;4.22;1.92;;;;;;;10.85;100.00;100026.44;5047745;28;20036;-72
2023/11/07 10:52:20;;;;;;;6.15;2.78;;;;;;;10.84;100.00;100022.91;5043348;28;20470;-72
2023/11/07 10:54:48;;;;;;;2.25;1.67;;;;;;;10.80;100.00;100016.06;5052411;28;20053;-72
2023/11/07 10:57:23;;;;;;;9.40;1.98;;;;;;;10.82;100.00;100013.34;5046893;28;20466;-72
2023/11/07 11:00:03;;;;;;;2.35;1.35;;;;;;;10.87;100.00;100022.72;5049396;28;20091;-72
2023/11/07 11:02:37;;;;;;;1.80;1.20;;;;;;;10.90;100.00;100001.38;5045806;28;20072;-72
2023/11/07 11:05:07;;;;;;;5.20;2.00;;;;;;;11.00;100.00;100008.84;5046536;28;20040;-74
2023/11/07 11:07:36;;;;;;;;;;;;;;;11.02;100.00;100015.75;5051371;28;20045;-73
2023/11/07 11:10:13;;;;;;;1.63;1.05;;;;;;;10.94;100.00;100015.31;5076969;28;19920;-73
2023/11/07 11:12:45;;;;;;;3.80;1.30;;;;;;;10.75;100.00;100011.94;5045506;28;20118;-73
2023/11/07 11:15:14;;;;;;;1.90;1.40;;;;;;;10.78;100.00;100017.94;5046300;28;20110;-72
2023/11/07 11:17:51;;;;;;;2.80;1.25;;;;;;;10.80;100.00;100013.41;5048866;28;20551;-72
2023/11/07 11:20:25;;;;;;;4.18;1.50;;;;;;;10.80;100.00;100012.56;5045921;28;20053;-73
2023/11/07 11:22:59;;;;;;;2.25;0.93;;;;;;;10.76;100.00;100005.72;5056587;28;20053;-72
2023/11/07 11:25:44;;;;;;;2.53;1.33;;;;;;;10.74;100.00;100012.88;5037034;28;20057;-73
2023/11/07 11:28:12;;;;;;;3.60;1.48;;;;;;;10.79;100.00;100010.84;5051992;28;20037;-72
2023/11/07 11:30:42;;;;;;;4.70;1.50;;;;;;;10.79;100.00;100005.56;5056082;28;20722;-72
2023/11/07 11:33:12;;;;;;;2.38;1.40;;;;;;;10.76;100.00;100019.81;5054894;28;20109;-72
2023/11/07 11:35:44;;;;;;;4.25;2.10;;;;;;;10.75;100.00;100010.16;5066927;28;20048;-71
2023/11/07 11:38:15;;;;;;;3.22;1.75;;;;;;;10.73;100.00;100008.53;5065074;28;20551;-71
2023/11/07 11:40:53;;;;;;;5.18;1.83;;;;;;;10.76;100.00;100011.00;5044754;28;20045;-72
2023/11/07 11:43:23;;;;;;;4.85;2.28;;;;;;;10.78;100.00;100009.13;5045124;28;20045;-70
2023/11/07 11:45:58;;;;;;;3.13;2.05;;;;;;;10.82;100.00;100006.25;5051230;28;20054;-73